createdAt,value
2022-12-01T00:01:30.083Z,73.05
2022-12-01T00:03:57.912Z,72.95
2022-12-01T00:06:25.960Z,82.85
2022-12-01T00:09:16.651Z,80.35
2022-12-01T00:11:47.650Z,79.80
2022-12-01T00:14:16.331Z,66.20
2022-12-01T00:16:44.568Z,82.30
2022-12-01T00:19:15.237Z,67.93
2022-12-01T00:21:42.570Z,78.07
2022-12-01T00:24:10.559Z,76.85
2022-12-01T00:26:38.165Z,79.95
2022-12-01T00:29:08.175Z,85.15
2022-12-01T00:31:35.476Z,90.95
2022-12-01T00:34:05.719Z,94.65
2022-12-01T00:36:36.816Z,94.95
2022-12-01T00:39:06.242Z,102.32
2022-12-01T00:41:35.882Z,93.82
2022-12-01T00:44:03.061Z,105.55
2022-12-01T00:46:30.424Z,101.68
2022-12-01T00:48:57.782Z,104.82
2022-12-01T00:51:25.377Z,92.28
2022-12-01T00:53:52.647Z,101.35
2022-12-01T00:56:21.127Z,100.28
2022-12-01T00:58:48.380Z,103.20
2022-12-01T01:01:18.608Z,101.53
2022-12-01T01:03:45.931Z,86.57
2022-12-01T01:06:21.027Z,84.40
2022-12-01T01:08:48.248Z,93.20
2022-12-01T01:11:15.501Z,92.68
2022-12-01T01:13:42.883Z,95.70
2022-12-01T01:16:30.497Z,102.95
2022-12-01T01:19:00.031Z,103.68
2022-12-01T01:21:27.527Z,93.75
2022-12-01T01:24:03.963Z,97.47
2022-12-01T01:26:52.602Z,96.43
2022-12-01T01:31:48.041Z,100.45
2022-12-01T01:34:17.980Z,97.40
2022-12-01T01:36:45.300Z,89.32
2022-12-01T01:39:12.582Z,103.47
2022-12-01T01:41:50.810Z,92.68
2022-12-01T01:44:39.827Z,89.85
2022-12-01T01:47:07.157Z,90.40
2022-12-01T01:49:34.434Z,93.55
2022-12-01T01:52:08.741Z,89.05
2022-12-01T01:54:50.464Z,85.70
2022-12-01T01:57:20.725Z,84.72
2022-12-01T01:59:50.186Z,95.88
2022-12-01T02:04:49.663Z,83.63
2022-12-01T02:07:18.812Z,93.63
2022-12-01T02:09:46.177Z,84.82
2022-12-01T02:12:13.553Z,95.88
2022-12-01T02:15:12.658Z,91.30
2022-12-01T02:17:46.156Z,91.30
2022-12-01T02:20:23.346Z,93.85
2022-12-01T02:22:54.220Z,95.72
2022-12-01T02:25:24.407Z,94.78
2022-12-01T02:28:10.369Z,103.05
2022-12-01T02:30:41.828Z,101.97
2022-12-01T02:33:15.707Z,88.85
2022-12-01T02:35:42.922Z,94.00
2022-12-01T02:38:14.047Z,102.32
2022-12-01T02:40:44.124Z,90.93
2022-12-01T02:43:40.611Z,92.47
2022-12-01T02:46:44.239Z,89.55
2022-12-01T02:49:17.677Z,81.07
2022-12-01T02:55:04.726Z,87.97
2022-12-01T02:57:32.070Z,88.82
2022-12-01T03:00:24.714Z,85.50
2022-12-01T03:03:02.618Z,88.78
2022-12-01T03:05:34.543Z,85.93
2022-12-01T03:08:07.843Z,79.15
2022-12-01T03:10:55.186Z,82.13
2022-12-01T03:13:34.855Z,82.45
2022-12-01T03:18:49.654Z,76.07
2022-12-01T03:21:49.486Z,77.68
2022-12-01T03:24:22.226Z,78.50
2022-12-01T03:26:52.268Z,85.68
2022-12-01T03:29:25.093Z,95.00
2022-12-01T03:31:58.611Z,80.18
2022-12-01T03:34:25.884Z,87.40
2022-12-01T03:37:04.998Z,85.88
2022-12-01T03:39:36.766Z,61.38
2022-12-01T03:42:15.133Z,89.07
2022-12-01T03:44:53.614Z,96.70
2022-12-01T03:47:22.371Z,93.72
2022-12-01T03:49:53.185Z,100.35
2022-12-01T03:52:41.570Z,89.30
2022-12-01T03:55:27.466Z,84.28
2022-12-01T03:58:18.581Z,93.75
2022-12-01T04:00:49.890Z,92.50
2022-12-01T04:03:19.137Z,99.40
2022-12-01T04:05:46.599Z,91.40
2022-12-01T04:08:13.997Z,92.22
2022-12-01T04:10:41.282Z,98.20
2022-12-01T04:13:16.041Z,86.32
2022-12-01T04:15:46.336Z,92.05
2022-12-01T04:18:13.860Z,85.50
2022-12-01T04:20:43.156Z,90.95
2022-12-01T04:23:10.637Z,97.22
2022-12-01T04:25:37.881Z,85.43
2022-12-01T04:28:05.216Z,84.45
2022-12-01T04:30:32.507Z,94.65
2022-12-01T04:32:59.746Z,96.03
2022-12-01T04:35:26.977Z,80.93
2022-12-01T04:37:54.241Z,93.57
2022-12-01T04:40:21.719Z,86.63
2022-12-01T04:42:48.920Z,95.22
2022-12-01T04:45:16.179Z,105.38
2022-12-01T04:47:43.457Z,86.97
2022-12-01T04:50:11.012Z,91.43
2022-12-01T04:52:42.356Z,91.80
2022-12-01T04:55:09.792Z,94.30
2022-12-01T04:57:39.421Z,96.68
2022-12-01T05:00:13.061Z,86.55
2022-12-01T05:02:43.313Z,82.70
2022-12-01T05:05:11.526Z,91.70
2022-12-01T05:07:38.782Z,93.10
2022-12-01T05:10:06.337Z,88.72
2022-12-01T05:12:36.376Z,103.75
2022-12-01T05:15:03.610Z,83.40
2022-12-01T05:17:37.066Z,93.55
2022-12-01T05:20:23.561Z,83.90
2022-12-01T05:23:10.887Z,84.68
2022-12-01T05:25:39.460Z,83.95
2022-12-01T05:28:06.849Z,85.57
2022-12-01T05:30:34.346Z,79.25
2022-12-01T05:33:02.513Z,88.68
2022-12-01T05:35:29.753Z,91.95
2022-12-01T05:37:57.117Z,88.38
2022-12-01T05:40:24.364Z,87.13
2022-12-01T05:42:51.660Z,88.47
2022-12-01T05:45:18.907Z,84.43
2022-12-01T05:47:46.127Z,93.28
2022-12-01T05:50:13.358Z,87.25
2022-12-01T05:52:40.583Z,91.80
2022-12-01T05:55:08.339Z,83.82
2022-12-01T05:57:35.655Z,92.07
2022-12-01T06:00:03.000Z,94.88
2022-12-01T06:02:38.540Z,94.07
2022-12-01T06:05:08.704Z,91.55
2022-12-01T06:07:36.044Z,106.28
2022-12-01T06:10:03.921Z,89.10
2022-12-01T06:12:31.208Z,97.38
2022-12-01T06:14:58.526Z,85.95
2022-12-01T06:17:25.838Z,89.93
2022-12-01T06:19:53.027Z,88.43
2022-12-01T06:22:20.237Z,87.70
2022-12-01T06:24:47.489Z,91.45
2022-12-01T06:27:14.710Z,90.35
2022-12-01T06:29:42.395Z,89.15
2022-12-01T06:32:10.065Z,101.15
2022-12-01T06:34:37.405Z,92.68
2022-12-01T06:37:04.661Z,93.18
2022-12-01T06:39:31.882Z,89.70
2022-12-01T06:41:59.128Z,99.70
2022-12-01T06:44:26.361Z,104.50
2022-12-01T06:46:53.566Z,100.50
2022-12-01T06:49:20.834Z,101.60
2022-12-01T06:51:48.037Z,101.80
2022-12-01T06:54:15.413Z,105.75
2022-12-01T06:56:46.028Z,105.68
2022-12-01T06:59:13.711Z,104.30
2022-12-01T07:01:41.226Z,108.32
2022-12-01T07:04:08.475Z,104.43
2022-12-01T07:06:35.665Z,98.07
2022-12-01T07:09:02.941Z,102.13
2022-12-01T07:11:32.279Z,99.55
2022-12-01T07:13:59.677Z,112.25
2022-12-01T07:16:26.968Z,100.05
2022-12-01T07:18:54.231Z,96.47
2022-12-01T07:21:21.538Z,94.07
2022-12-01T07:23:48.812Z,97.47
2022-12-01T07:26:17.719Z,92.25
2022-12-01T07:28:45.324Z,106.72
2022-12-01T07:31:17.079Z,96.13
2022-12-01T07:33:47.343Z,97.47
2022-12-01T07:36:14.990Z,97.55
2022-12-01T07:38:42.625Z,93.63
2022-12-01T07:41:14.065Z,96.70
2022-12-01T07:43:41.665Z,92.45
2022-12-01T07:46:10.493Z,99.05
2022-12-01T07:48:38.432Z,96.53
2022-12-01T07:51:06.734Z,92.55
2022-12-01T07:53:34.063Z,93.57
2022-12-01T07:56:08.352Z,106.60
2022-12-01T07:58:36.122Z,109.88
2022-12-01T08:01:07.914Z,113.60
2022-12-01T08:03:35.264Z,106.47
2022-12-01T08:06:03.121Z,111.45
2022-12-01T08:08:32.385Z,116.03
2022-12-01T08:11:04.185Z,111.78
2022-12-01T08:13:31.483Z,119.45
2022-12-01T08:16:04.311Z,125.68
2022-12-01T08:18:31.678Z,114.60
2022-12-01T08:20:59.024Z,128.73
2022-12-01T08:23:26.200Z,132.75
2022-12-01T08:25:54.494Z,122.85
2022-12-01T08:28:22.023Z,118.40
2022-12-01T08:30:49.304Z,126.97
2022-12-01T08:33:16.601Z,135.13
2022-12-01T08:35:43.849Z,124.20
2022-12-01T08:38:11.306Z,139.65
2022-12-01T08:40:38.871Z,124.35
2022-12-01T08:43:06.465Z,134.70
2022-12-01T08:45:33.808Z,134.85
2022-12-01T08:48:01.058Z,122.53
2022-12-01T08:50:28.643Z,133.70
2022-12-01T08:52:56.017Z,126.35
2022-12-01T08:55:23.278Z,129.18
2022-12-01T08:57:50.654Z,122.72
2022-12-01T09:00:23.154Z,125.40
2022-12-01T09:02:50.493Z,122.40
2022-12-01T09:05:17.767Z,124.80
2022-12-01T09:08:05.023Z,123.20
2022-12-01T09:10:35.314Z,113.25
2022-12-01T09:13:02.584Z,120.30
2022-12-01T09:15:29.975Z,115.55
2022-12-01T09:17:57.357Z,120.15
2022-12-01T09:20:24.664Z,108.10
2022-12-01T09:22:53.128Z,110.68
2022-12-01T09:25:20.369Z,109.57
2022-12-01T09:27:47.691Z,103.13
2022-12-01T09:30:15.316Z,109.40
2022-12-01T09:32:42.587Z,123.35
2022-12-01T09:35:10.108Z,149.10
2022-12-01T09:37:37.390Z,138.05
2022-12-01T09:40:04.846Z,147.65
2022-12-01T09:42:35.407Z,153.70
2022-12-01T09:45:05.007Z,148.82
2022-12-01T09:47:34.777Z,134.35
2022-12-01T09:50:04.883Z,151.02
2022-12-01T09:52:42.648Z,141.23
2022-12-01T09:55:22.406Z,130.00
2022-12-01T09:57:50.905Z,135.32
2022-12-01T10:00:22.528Z,109.13
2022-12-01T10:02:52.446Z,100.03
2022-12-01T10:05:21.452Z,102.90
2022-12-01T10:07:54.898Z,93.45
2022-12-01T10:10:25.634Z,86.32
2022-12-01T10:12:53.162Z,82.45
2022-12-01T10:15:26.445Z,81.50
2022-12-01T10:17:59.732Z,68.05
2022-12-01T10:20:48.176Z,75.03
2022-12-01T10:23:29.473Z,74.45
2022-12-01T10:25:59.443Z,71.70
2022-12-01T10:28:29.643Z,72.75
2022-12-01T10:31:01.366Z,70.45
2022-12-01T10:33:36.319Z,74.50
2022-12-01T10:36:03.619Z,67.22
2022-12-01T10:38:35.834Z,76.95
2022-12-01T10:41:03.835Z,72.07
2022-12-01T10:43:37.829Z,66.95
2022-12-01T10:46:12.301Z,66.63
2022-12-01T10:48:52.794Z,67.50
2022-12-01T10:51:21.219Z,77.13
2022-12-01T10:53:48.470Z,70.35
2022-12-01T10:56:19.938Z,62.85
2022-12-01T10:58:49.531Z,67.88
2022-12-01T11:03:44.518Z,60.78
2022-12-01T11:06:14.031Z,58.22
2022-12-01T11:08:44.183Z,64.93
2022-12-01T11:11:26.772Z,64.45
2022-12-01T11:13:54.642Z,61.25
2022-12-01T11:16:39.435Z,58.55
2022-12-01T11:19:25.377Z,60.03
2022-12-01T11:21:58.427Z,57.50
2022-12-01T11:24:30.378Z,57.90
2022-12-01T11:26:59.213Z,53.53
2022-12-01T11:29:30.021Z,52.30
2022-12-01T11:31:57.789Z,59.15
2022-12-01T11:34:34.658Z,57.05
2022-12-01T11:37:03.568Z,52.20
2022-12-01T11:39:36.552Z,53.55
2022-12-01T11:42:23.983Z,47.38
2022-12-01T11:44:55.804Z,50.95
2022-12-01T11:47:25.318Z,57.03
2022-12-01T11:49:56.546Z,49.17
2022-12-01T11:52:27.344Z,52.25
2022-12-01T11:55:04.411Z,59.63
2022-12-01T11:57:37.083Z,57.15
2022-12-01T12:00:18.175Z,54.97
2022-12-01T12:02:51.400Z,47.47
2022-12-01T12:05:18.764Z,48.25
2022-12-01T12:08:05.656Z,51.88
2022-12-01T12:10:51.893Z,50.80
2022-12-01T12:13:37.949Z,48.28
2022-12-01T12:16:23.845Z,47.15
2022-12-01T12:18:52.634Z,52.75
2022-12-01T12:21:29.674Z,42.78
2022-12-01T12:23:56.977Z,47.10
2022-12-01T12:26:31.695Z,46.35
2022-12-01T12:29:20.722Z,49.50
2022-12-01T12:32:02.883Z,42.92
2022-12-01T12:34:42.907Z,46.63
2022-12-01T12:37:19.427Z,42.85
2022-12-01T12:39:54.420Z,44.95
2022-12-01T12:42:32.961Z,46.00
2022-12-01T12:45:07.567Z,45.17
2022-12-01T12:47:34.888Z,45.78
2022-12-01T12:50:04.927Z,43.17
2022-12-01T12:52:41.240Z,45.00
2022-12-01T12:55:17.714Z,44.67
2022-12-01T12:57:50.616Z,40.60
2022-12-01T13:00:19.474Z,43.63
2022-12-01T13:03:12.485Z,43.67
2022-12-01T13:05:49.174Z,44.50
2022-12-01T13:08:30.156Z,40.40
2022-12-01T13:11:07.080Z,43.80
2022-12-01T13:13:49.600Z,40.90
2022-12-01T13:16:20.093Z,39.00
2022-12-01T13:19:10.778Z,40.63
2022-12-01T13:21:40.323Z,42.10
2022-12-01T13:26:36.693Z,40.67
2022-12-01T13:29:06.298Z,41.60
2022-12-01T13:34:03.756Z,40.50
2022-12-01T13:36:46.618Z,41.67
2022-12-01T13:39:37.449Z,45.17
2022-12-01T13:42:06.739Z,41.30
2022-12-01T13:44:45.085Z,41.80
2022-12-01T13:47:12.324Z,37.33
2022-12-01T13:49:42.678Z,40.30
2022-12-01T13:52:19.239Z,39.58
2022-12-01T13:55:05.363Z,41.47
2022-12-01T13:57:37.218Z,38.67
2022-12-01T14:00:07.183Z,40.45
2022-12-01T14:02:40.355Z,44.05
2022-12-01T14:05:30.823Z,36.83
2022-12-01T14:07:58.654Z,32.20
2022-12-01T14:10:27.617Z,33.38
2022-12-01T14:12:57.349Z,39.20
2022-12-01T14:15:30.118Z,31.55
2022-12-01T14:18:20.769Z,35.95
2022-12-01T14:20:51.557Z,32.30
2022-12-01T14:23:37.339Z,33.63
2022-12-01T14:26:10.948Z,31.10
2022-12-01T14:28:56.929Z,28.17
2022-12-01T14:31:24.678Z,31.17
2022-12-01T14:33:59.699Z,34.97
2022-12-01T14:36:43.463Z,32.15
2022-12-01T14:39:13.754Z,34.67
2022-12-01T14:41:44.406Z,32.08
2022-12-01T14:44:30.756Z,32.85
2022-12-01T14:47:05.798Z,35.42
2022-12-01T14:49:35.249Z,31.30
2022-12-01T14:52:05.691Z,36.72
2022-12-01T14:54:47.750Z,32.97
2022-12-01T14:57:18.613Z,35.28
2022-12-01T14:59:46.096Z,30.83
2022-12-01T15:02:14.395Z,35.55
2022-12-01T15:05:03.090Z,30.95
2022-12-01T15:07:30.483Z,29.03
2022-12-01T15:10:02.179Z,30.95
2022-12-01T15:12:32.763Z,32.83
2022-12-01T15:15:00.257Z,36.97
2022-12-01T15:17:34.374Z,35.58
2022-12-01T15:20:01.969Z,29.88
2022-12-01T15:22:30.831Z,31.08
2022-12-01T15:25:09.157Z,29.15
2022-12-01T15:27:36.582Z,30.65
2022-12-01T15:30:05.364Z,29.88
2022-12-01T15:32:37.903Z,26.43
2022-12-01T15:35:05.686Z,31.58
2022-12-01T15:37:41.278Z,27.10
2022-12-01T15:40:59.539Z,32.60
2022-12-01T15:43:02.122Z,28.02
2022-12-01T15:45:29.602Z,30.02
2022-12-01T15:47:57.049Z,29.95
2022-12-01T15:50:46.562Z,31.23
2022-12-01T15:55:41.158Z,29.17
2022-12-01T15:58:09.550Z,28.25
2022-12-01T16:00:36.881Z,27.77
2022-12-01T16:03:04.202Z,27.25
2022-12-01T16:05:36.205Z,31.38
2022-12-01T16:08:20.579Z,27.02
2022-12-01T16:11:07.823Z,29.70
2022-12-01T16:13:42.927Z,34.97
2022-12-01T16:16:29.463Z,34.65
2022-12-01T16:18:58.670Z,35.67
2022-12-01T16:21:28.846Z,36.35
2022-12-01T16:24:00.649Z,34.78
2022-12-01T16:26:28.630Z,34.03
2022-12-01T16:28:56.422Z,33.83
2022-12-01T16:31:25.344Z,32.33
2022-12-01T16:34:06.561Z,33.58
2022-12-01T16:36:41.300Z,39.92
2022-12-01T16:39:08.827Z,35.10
2022-12-01T16:41:41.118Z,35.35
2022-12-01T16:46:56.813Z,34.50
2022-12-01T16:49:24.073Z,31.23
2022-12-01T16:51:56.413Z,34.63
2022-12-01T16:54:24.337Z,34.72
2022-12-01T16:56:51.666Z,40.60
2022-12-01T16:59:20.040Z,35.63
2022-12-01T17:01:47.540Z,33.47
2022-12-01T17:04:15.187Z,31.42
2022-12-01T17:06:42.396Z,31.23
2022-12-01T17:09:09.675Z,37.70
2022-12-01T17:11:36.933Z,39.92
2022-12-01T17:14:04.174Z,39.05
2022-12-01T17:16:31.525Z,34.40
2022-12-01T17:19:00.784Z,35.30
2022-12-01T17:21:28.124Z,38.88
2022-12-01T17:23:55.484Z,44.13
2022-12-01T17:26:22.754Z,42.28
2022-12-01T17:28:52.360Z,36.55
2022-12-01T17:31:19.701Z,40.03
2022-12-01T17:33:47.145Z,43.45
2022-12-01T17:36:15.140Z,40.83
2022-12-01T17:38:45.329Z,44.67
2022-12-01T17:41:14.263Z,43.25
2022-12-01T17:43:41.911Z,42.88
2022-12-01T17:46:10.460Z,51.15
2022-12-01T17:48:38.667Z,46.15
2022-12-01T17:51:06.724Z,47.10
2022-12-01T17:53:34.500Z,45.08
2022-12-01T17:56:01.830Z,50.92
2022-12-01T17:58:32.811Z,41.70
2022-12-01T18:01:00.073Z,44.33
2022-12-01T18:03:27.386Z,41.40
2022-12-01T18:05:56.022Z,40.28
2022-12-01T18:08:23.560Z,48.63
2022-12-01T18:10:51.044Z,41.17
2022-12-01T18:13:20.301Z,44.72
2022-12-01T18:15:48.996Z,41.90
2022-12-01T18:18:16.531Z,46.33
2022-12-01T18:20:45.410Z,36.22
2022-12-01T18:23:16.365Z,41.70
2022-12-01T18:25:43.683Z,41.10
2022-12-01T18:28:11.158Z,39.65
2022-12-01T18:30:38.929Z,43.08
2022-12-01T18:33:10.926Z,45.65
2022-12-01T18:35:42.278Z,44.95
2022-12-01T18:38:09.571Z,49.28
2022-12-01T18:40:39.850Z,47.05
2022-12-01T18:43:07.105Z,41.13
2022-12-01T18:45:35.569Z,48.10
2022-12-01T18:48:05.039Z,60.72
2022-12-01T18:50:41.383Z,67.07
2022-12-01T18:53:08.576Z,69.07
2022-12-01T18:55:39.421Z,68.65
2022-12-01T18:58:06.688Z,63.03
2022-12-01T19:00:34.315Z,53.53
2022-12-01T19:03:01.649Z,59.33
2022-12-01T19:05:30.829Z,51.70
2022-12-01T19:07:58.882Z,53.10
2022-12-01T19:10:27.071Z,49.38
2022-12-01T19:12:54.387Z,54.35
2022-12-01T19:15:22.654Z,48.75
2022-12-01T19:17:49.948Z,46.58
2022-12-01T19:20:17.236Z,45.08
2022-12-01T19:22:44.522Z,52.92
2022-12-01T19:25:13.446Z,50.95
2022-12-01T19:27:41.307Z,54.75
2022-12-01T19:30:08.858Z,49.45
2022-12-01T19:32:36.445Z,48.70
2022-12-01T19:35:06.086Z,52.30
2022-12-01T19:40:00.695Z,49.65
2022-12-01T19:42:28.039Z,50.40
2022-12-01T19:44:55.808Z,49.33
2022-12-01T19:47:23.041Z,46.35
2022-12-01T19:49:55.542Z,52.97
2022-12-01T19:52:22.879Z,52.88
2022-12-01T19:54:50.462Z,56.75
2022-12-01T19:57:17.946Z,56.75
2022-12-01T19:59:45.236Z,56.55
2022-12-01T20:02:12.528Z,54.33
2022-12-01T20:04:40.708Z,50.70
2022-12-01T20:07:08.299Z,53.05
2022-12-01T20:09:35.626Z,50.63
2022-12-01T20:12:03.103Z,56.13
2022-12-01T20:14:30.359Z,48.05
2022-12-01T20:16:57.685Z,54.13
2022-12-01T20:19:24.959Z,52.30
2022-12-01T20:21:52.270Z,56.85
2022-12-01T20:24:21.497Z,52.30
2022-12-01T20:26:50.088Z,47.03
2022-12-01T20:29:23.932Z,49.60
2022-12-01T20:31:52.110Z,57.38
2022-12-01T20:34:21.243Z,50.53
2022-12-01T20:36:49.018Z,53.47
2022-12-01T20:39:16.453Z,47.08
2022-12-01T20:41:44.286Z,50.80
2022-12-01T20:44:12.470Z,55.40
2022-12-01T20:46:45.264Z,54.05
2022-12-01T20:49:12.729Z,52.47
2022-12-01T20:51:40.029Z,55.88
2022-12-01T20:56:55.846Z,48.83
2022-12-01T20:59:23.196Z,49.53
2022-12-01T21:01:50.378Z,51.80
2022-12-01T21:04:17.801Z,52.20
2022-12-01T21:06:45.367Z,45.72
2022-12-01T21:09:13.323Z,47.22
2022-12-01T21:12:05.023Z,48.13
2022-12-01T21:14:37.800Z,57.58
2022-12-01T21:17:25.377Z,62.40
2022-12-01T21:20:07.032Z,65.13
2022-12-01T21:22:34.749Z,63.28
2022-12-01T21:25:11.824Z,52.65
2022-12-01T21:27:39.146Z,59.17
2022-12-01T21:30:20.493Z,59.75
2022-12-01T21:32:48.677Z,67.82
2022-12-01T21:35:20.288Z,58.95
2022-12-01T21:37:47.892Z,63.03
2022-12-01T21:40:25.714Z,60.78
2022-12-01T21:42:52.986Z,62.08
2022-12-01T21:45:28.139Z,65.28
2022-12-01T21:48:11.482Z,55.88
2022-12-01T21:50:38.775Z,56.22
2022-12-01T21:53:16.517Z,57.67
2022-12-01T21:55:45.058Z,60.70
2022-12-01T21:58:21.417Z,63.95
2022-12-01T22:00:48.825Z,58.83
2022-12-01T22:03:36.982Z,63.50
2022-12-01T22:09:00.894Z,64.07
2022-12-01T22:11:29.102Z,61.30
2022-12-01T22:14:13.778Z,62.45
2022-12-01T22:16:42.109Z,61.88
2022-12-01T22:19:15.603Z,59.72
2022-12-01T22:21:49.770Z,68.57
2022-12-01T22:24:35.903Z,66.82
2022-12-01T22:27:06.035Z,65.70
2022-12-01T22:29:41.283Z,63.03
2022-12-01T22:32:11.710Z,68.22
2022-12-01T22:34:50.154Z,62.20
2022-12-01T22:37:20.640Z,62.90
2022-12-01T22:39:49.555Z,65.07
2022-12-01T22:42:21.133Z,69.47
2022-12-01T22:44:48.770Z,79.25
2022-12-01T22:47:16.338Z,63.33
2022-12-01T22:49:43.589Z,70.03
2022-12-01T22:52:16.645Z,70.15
2022-12-01T22:54:45.513Z,66.40
2022-12-01T22:57:21.834Z,60.83
2022-12-01T22:59:50.301Z,64.28
2022-12-01T23:02:22.363Z,65.38
2022-12-01T23:04:52.484Z,69.43
2022-12-01T23:07:36.721Z,71.97
2022-12-01T23:10:04.065Z,70.57
2022-12-01T23:12:32.876Z,75.18
2022-12-01T23:15:07.887Z,80.50
2022-12-01T23:17:38.890Z,83.63
2022-12-01T23:20:15.333Z,79.25
2022-12-01T23:22:42.556Z,83.00
2022-12-01T23:25:14.121Z,83.95
2022-12-01T23:27:42.015Z,80.95
2022-12-01T23:30:09.514Z,77.97
2022-12-01T23:32:36.725Z,77.40
2022-12-01T23:35:04.571Z,87.55
2022-12-01T23:37:36.783Z,83.93
2022-12-01T23:40:11.369Z,83.30
2022-12-01T23:42:38.715Z,86.60
2022-12-01T23:45:06.377Z,89.25
2022-12-01T23:47:33.894Z,87.53
2022-12-01T23:50:04.395Z,87.65
2022-12-01T23:52:34.551Z,99.03
2022-12-01T23:55:02.354Z,92.00
2022-12-01T23:57:31.031Z,94.55
